sensor_id;sensor_type;location;lat;lon;timestamp;temperature;humidity
57833;DHT22;43667;53.036;6.740;2022-08-19T00:00:31;15.40;99.90
57833;DHT22;43667;53.036;6.740;2022-08-19T00:02:57;15.40;99.90
57833;DHT22;43667;53.036;6.740;2022-08-19T00:05:23;15.40;99.90
57833;DHT22;43667;53.036;6.740;2022-08-19T00:07:49;15.40;99.90
57833;DHT22;43667;53.036;6.740;2022-08-19T00:10:17;15.40;99.90
57833;DHT22;43667;53.036;6.740;2022-08-19T00:12:43;15.40;99.90
57833;DHT22;43667;53.036;6.740;2022-08-19T00:15:11;15.30;99.90
57833;DHT22;43667;53.036;6.740;2022-08-19T00:17:44;15.30;99.90
57833;DHT22;43667;53.036;6.740;2022-08-19T00:20:12;15.30;99.90
57833;DHT22;43667;53.036;6.740;2022-08-19T00:22:38;15.30;99.90
57833;DHT22;43667;53.036;6.740;2022-08-19T00:25:07;15.30;99.90
57833;DHT22;43667;53.036;6.740;2022-08-19T00:27:33;15.30;99.90
57833;DHT22;43667;53.036;6.740;2022-08-19T00:29:59;15.30;99.90
57833;DHT22;43667;53.036;6.740;2022-08-19T00:32:25;15.30;99.90
57833;DHT22;43667;53.036;6.740;2022-08-19T00:34:52;15.30;99.90
57833;DHT22;43667;53.036;6.740;2022-08-19T00:37:19;15.30;99.90
57833;DHT22;43667;53.036;6.740;2022-08-19T00:39:48;15.30;99.90
57833;DHT22;43667;53.036;6.740;2022-08-19T00:42:14;15.20;99.90
57833;DHT22;43667;53.036;6.740;2022-08-19T00:44:41;15.20;99.90
57833;DHT22;43667;53.036;6.740;2022-08-19T00:47:08;15.20;99.90
57833;DHT22;43667;53.036;6.740;2022-08-19T00:52:15;15.20;99.90
57833;DHT22;43667;53.036;6.740;2022-08-19T00:54:43;15.20;99.90
57833;DHT22;43667;53.036;6.740;2022-08-19T00:57:13;15.10;99.90
57833;DHT22;43667;53.036;6.740;2022-08-19T00:59:42;15.10;99.90
57833;DHT22;43667;53.036;6.740;2022-08-19T01:02:08;15.10;99.90
57833;DHT22;43667;53.036;6.740;2022-08-19T01:04:34;15.00;99.90
57833;DHT22;43667;53.036;6.740;2022-08-19T01:07:02;15.00;99.90
57833;DHT22;43667;53.036;6.740;2022-08-19T01:09:28;15.00;99.90
57833;DHT22;43667;53.036;6.740;2022-08-19T01:11:55;15.00;99.90
57833;DHT22;43667;53.036;6.740;2022-08-19T01:14:21;15.00;99.90
57833;DHT22;43667;53.036;6.740;2022-08-19T01:16:47;14.90;99.90
57833;DHT22;43667;53.036;6.740;2022-08-19T01:19:27;14.90;99.90
57833;DHT22;43667;53.036;6.740;2022-08-19T01:22:11;14.90;99.90
57833;DHT22;43667;53.036;6.740;2022-08-19T01:24:38;14.90;99.90
57833;DHT22;43667;53.036;6.740;2022-08-19T01:27:05;14.80;99.90
57833;DHT22;43667;53.036;6.740;2022-08-19T01:29:31;14.80;99.90
57833;DHT22;43667;53.036;6.740;2022-08-19T01:31:57;14.80;99.90
57833;DHT22;43667;53.036;6.740;2022-08-19T01:34:23;14.80;99.90
57833;DHT22;43667;53.036;6.740;2022-08-19T01:36:49;14.80;99.90
57833;DHT22;43667;53.036;6.740;2022-08-19T01:39:20;14.70;99.90
57833;DHT22;43667;53.036;6.740;2022-08-19T01:41:47;14.70;99.90
57833;DHT22;43667;53.036;6.740;2022-08-19T01:44:13;14.70;99.90
57833;DHT22;43667;53.036;6.740;2022-08-19T01:46:39;14.60;99.90
57833;DHT22;43667;53.036;6.740;2022-08-19T01:49:05;14.60;99.90
57833;DHT22;43667;53.036;6.740;2022-08-19T01:51:31;14.60;99.90
57833;DHT22;43667;53.036;6.740;2022-08-19T01:53:57;14.60;99.90
57833;DHT22;43667;53.036;6.740;2022-08-19T01:56:23;14.60;99.90
57833;DHT22;43667;53.036;6.740;2022-08-19T01:58:53;14.60;99.90
57833;DHT22;43667;53.036;6.740;2022-08-19T02:01:20;14.60;99.90
57833;DHT22;43667;53.036;6.740;2022-08-19T02:03:46;14.60;99.90
57833;DHT22;43667;53.036;6.740;2022-08-19T02:06:12;14.60;99.90
57833;DHT22;43667;53.036;6.740;2022-08-19T02:08:39;14.50;99.90
57833;DHT22;43667;53.036;6.740;2022-08-19T02:11:06;14.50;99.90
57833;DHT22;43667;53.036;6.740;2022-08-19T02:13:32;14.50;99.90
57833;DHT22;43667;53.036;6.740;2022-08-19T02:15:58;14.50;99.90
57833;DHT22;43667;53.036;6.740;2022-08-19T02:18:23;14.40;99.90
57833;DHT22;43667;53.036;6.740;2022-08-19T02:20:49;14.40;99.90
57833;DHT22;43667;53.036;6.740;2022-08-19T02:23:16;14.40;99.90
57833;DHT22;43667;53.036;6.740;2022-08-19T02:25:44;14.40;99.90
57833;DHT22;43667;53.036;6.740;2022-08-19T02:28:09;14.30;99.90
57833;DHT22;43667;53.036;6.740;2022-08-19T02:30:36;14.40;99.90
57833;DHT22;43667;53.036;6.740;2022-08-19T02:33:04;14.30;99.90
57833;DHT22;43667;53.036;6.740;2022-08-19T02:35:30;14.40;99.90
57833;DHT22;43667;53.036;6.740;2022-08-19T02:37:56;14.30;99.90
57833;DHT22;43667;53.036;6.740;2022-08-19T02:40:41;14.30;99.90
57833;DHT22;43667;53.036;6.740;2022-08-19T02:43:15;14.30;99.90
57833;DHT22;43667;53.036;6.740;2022-08-19T02:45:40;14.20;99.90
57833;DHT22;43667;53.036;6.740;2022-08-19T02:48:06;14.20;99.90
57833;DHT22;43667;53.036;6.740;2022-08-19T02:50:37;14.20;99.90
57833;DHT22;43667;53.036;6.740;2022-08-19T02:53:04;14.20;99.90
57833;DHT22;43667;53.036;6.740;2022-08-19T02:55:29;14.20;99.90
57833;DHT22;43667;53.036;6.740;2022-08-19T02:57:55;14.20;99.90
57833;DHT22;43667;53.036;6.740;2022-08-19T03:00:22;14.20;99.90
57833;DHT22;43667;53.036;6.740;2022-08-19T03:02:49;14.20;99.90
57833;DHT22;43667;53.036;6.740;2022-08-19T03:05:15;14.20;99.90
57833;DHT22;43667;53.036;6.740;2022-08-19T03:07:41;14.10;99.90
57833;DHT22;43667;53.036;6.740;2022-08-19T03:10:07;14.20;99.90
57833;DHT22;43667;53.036;6.740;2022-08-19T03:12:36;14.10;99.90
57833;DHT22;43667;53.036;6.740;2022-08-19T03:15:04;14.20;99.90
57833;DHT22;43667;53.036;6.740;2022-08-19T03:17:30;14.10;99.90
57833;DHT22;43667;53.036;6.740;2022-08-19T03:19:56;14.10;99.90
57833;DHT22;43667;53.036;6.740;2022-08-19T03:22:22;14.10;99.90
57833;DHT22;43667;53.036;6.740;2022-08-19T03:24:47;14.20;99.90
57833;DHT22;43667;53.036;6.740;2022-08-19T03:27:13;14.10;99.90
57833;DHT22;43667;53.036;6.740;2022-08-19T03:29:39;14.10;99.90
57833;DHT22;43667;53.036;6.740;2022-08-19T03:32:05;14.10;99.90
57833;DHT22;43667;53.036;6.740;2022-08-19T03:34:33;14.10;99.90
57833;DHT22;43667;53.036;6.740;2022-08-19T03:37:03;14.10;99.90
57833;DHT22;43667;53.036;6.740;2022-08-19T03:39:29;14.10;99.90
57833;DHT22;43667;53.036;6.740;2022-08-19T03:41:56;14.10;99.90
57833;DHT22;43667;53.036;6.740;2022-08-19T03:44:23;14.10;99.90
57833;DHT22;43667;53.036;6.740;2022-08-19T03:46:55;14.10;99.90
57833;DHT22;43667;53.036;6.740;2022-08-19T03:49:22;14.10;99.90
57833;DHT22;43667;53.036;6.740;2022-08-19T03:51:48;14.00;99.90
57833;DHT22;43667;53.036;6.740;2022-08-19T03:54:19;14.10;99.90
57833;DHT22;43667;53.036;6.740;2022-08-19T03:56:46;14.00;99.90
57833;DHT22;43667;53.036;6.740;2022-08-19T03:59:16;14.00;99.90
57833;DHT22;43667;53.036;6.740;2022-08-19T04:01:42;14.00;99.90
57833;DHT22;43667;53.036;6.740;2022-08-19T04:04:08;14.00;99.90
57833;DHT22;43667;53.036;6.740;2022-08-19T04:06:35;14.00;99.90
57833;DHT22;43667;53.036;6.740;2022-08-19T04:09:04;14.00;99.90
57833;DHT22;43667;53.036;6.740;2022-08-19T04:11:42;14.00;99.90
57833;DHT22;43667;53.036;6.740;2022-08-19T04:14:10;14.00;99.90
57833;DHT22;43667;53.036;6.740;2022-08-19T04:16:37;14.00;99.90
57833;DHT22;43667;53.036;6.740;2022-08-19T04:19:04;13.90;99.90
57833;DHT22;43667;53.036;6.740;2022-08-19T04:21:30;13.90;99.90
57833;DHT22;43667;53.036;6.740;2022-08-19T04:23:56;13.80;99.90
57833;DHT22;43667;53.036;6.740;2022-08-19T04:26:30;13.80;99.90
57833;DHT22;43667;53.036;6.740;2022-08-19T04:29:05;13.80;99.90
57833;DHT22;43667;53.036;6.740;2022-08-19T04:31:32;13.80;99.90
57833;DHT22;43667;53.036;6.740;2022-08-19T04:34:03;13.70;99.90
57833;DHT22;43667;53.036;6.740;2022-08-19T04:36:31;13.80;99.90
57833;DHT22;43667;53.036;6.740;2022-08-19T04:39:00;13.80;99.90
57833;DHT22;43667;53.036;6.740;2022-08-19T04:41:26;13.80;99.90
57833;DHT22;43667;53.036;6.740;2022-08-19T04:44:12;13.80;99.90
57833;DHT22;43667;53.036;6.740;2022-08-19T04:46:38;13.80;99.90
57833;DHT22;43667;53.036;6.740;2022-08-19T04:49:05;13.80;99.90
57833;DHT22;43667;53.036;6.740;2022-08-19T04:51:31;13.80;99.90
57833;DHT22;43667;53.036;6.740;2022-08-19T04:53:57;13.80;99.90
57833;DHT22;43667;53.036;6.740;2022-08-19T04:56:24;13.80;99.90
57833;DHT22;43667;53.036;6.740;2022-08-19T04:58:52;13.90;99.90
57833;DHT22;43667;53.036;6.740;2022-08-19T05:01:21;13.90;99.90
57833;DHT22;43667;53.036;6.740;2022-08-19T05:03:47;13.90;99.90
57833;DHT22;43667;53.036;6.740;2022-08-19T05:06:15;13.90;99.90
57833;DHT22;43667;53.036;6.740;2022-08-19T05:08:42;13.90;99.90
57833;DHT22;43667;53.036;6.740;2022-08-19T05:11:20;14.00;99.90
57833;DHT22;43667;53.036;6.740;2022-08-19T05:13:48;14.00;99.90
57833;DHT22;43667;53.036;6.740;2022-08-19T05:16:15;14.10;99.90
57833;DHT22;43667;53.036;6.740;2022-08-19T05:18:41;14.10;99.90
57833;DHT22;43667;53.036;6.740;2022-08-19T05:21:27;14.20;99.90
57833;DHT22;43667;53.036;6.740;2022-08-19T05:24:11;14.20;99.90
57833;DHT22;43667;53.036;6.740;2022-08-19T05:26:40;14.30;99.90
57833;DHT22;43667;53.036;6.740;2022-08-19T05:29:07;14.40;99.90
57833;DHT22;43667;53.036;6.740;2022-08-19T05:31:34;14.50;99.90
57833;DHT22;43667;53.036;6.740;2022-08-19T05:34:01;14.60;99.90
57833;DHT22;43667;53.036;6.740;2022-08-19T05:36:28;14.60;99.90
57833;DHT22;43667;53.036;6.740;2022-08-19T05:38:54;14.60;99.90
57833;DHT22;43667;53.036;6.740;2022-08-19T05:41:21;14.70;99.90
57833;DHT22;43667;53.036;6.740;2022-08-19T05:43:51;14.80;99.90
57833;DHT22;43667;53.036;6.740;2022-08-19T05:46:19;14.90;99.90
57833;DHT22;43667;53.036;6.740;2022-08-19T05:48:45;14.90;99.90
57833;DHT22;43667;53.036;6.740;2022-08-19T05:51:11;15.00;99.90
57833;DHT22;43667;53.036;6.740;2022-08-19T05:53:37;15.10;99.90
57833;DHT22;43667;53.036;6.740;2022-08-19T05:56:14;15.20;99.90
57833;DHT22;43667;53.036;6.740;2022-08-19T05:58:42;15.30;99.90
57833;DHT22;43667;53.036;6.740;2022-08-19T06:01:16;15.40;99.90
57833;DHT22;43667;53.036;6.740;2022-08-19T06:03:43;15.50;99.90
57833;DHT22;43667;53.036;6.740;2022-08-19T06:06:10;15.60;99.90
57833;DHT22;43667;53.036;6.740;2022-08-19T06:08:37;15.80;99.90
57833;DHT22;43667;53.036;6.740;2022-08-19T06:11:32;15.90;99.90
57833;DHT22;43667;53.036;6.740;2022-08-19T06:14:00;16.00;99.90
57833;DHT22;43667;53.036;6.740;2022-08-19T06:16:27;16.10;99.90
57833;DHT22;43667;53.036;6.740;2022-08-19T06:18:55;16.30;99.90
57833;DHT22;43667;53.036;6.740;2022-08-19T06:21:24;16.40;99.90
57833;DHT22;43667;53.036;6.740;2022-08-19T06:23:51;16.50;99.90
57833;DHT22;43667;53.036;6.740;2022-08-19T06:26:18;16.60;99.90
57833;DHT22;43667;53.036;6.740;2022-08-19T06:28:44;16.70;99.90
57833;DHT22;43667;53.036;6.740;2022-08-19T06:31:16;16.80;99.90
57833;DHT22;43667;53.036;6.740;2022-08-19T06:33:44;17.00;99.90
57833;DHT22;43667;53.036;6.740;2022-08-19T06:36:37;17.10;99.90
57833;DHT22;43667;53.036;6.740;2022-08-19T06:39:09;17.30;99.90
57833;DHT22;43667;53.036;6.740;2022-08-19T06:41:37;17.50;99.90
57833;DHT22;43667;53.036;6.740;2022-08-19T06:44:04;17.60;99.90
57833;DHT22;43667;53.036;6.740;2022-08-19T06:46:30;17.80;99.90
57833;DHT22;43667;53.036;6.740;2022-08-19T06:48:57;18.00;99.90
57833;DHT22;43667;53.036;6.740;2022-08-19T06:51:23;18.20;99.90
57833;DHT22;43667;53.036;6.740;2022-08-19T06:53:51;18.40;99.90
57833;DHT22;43667;53.036;6.740;2022-08-19T06:56:20;18.60;99.90
57833;DHT22;43667;53.036;6.740;2022-08-19T06:58:46;18.70;99.90
57833;DHT22;43667;53.036;6.740;2022-08-19T07:01:12;18.90;99.90
57833;DHT22;43667;53.036;6.740;2022-08-19T07:03:38;19.00;99.90
57833;DHT22;43667;53.036;6.740;2022-08-19T07:06:12;19.20;99.90
57833;DHT22;43667;53.036;6.740;2022-08-19T07:08:38;19.40;99.90
57833;DHT22;43667;53.036;6.740;2022-08-19T07:11:11;19.60;99.90
57833;DHT22;43667;53.036;6.740;2022-08-19T07:13:39;19.80;99.90
57833;DHT22;43667;53.036;6.740;2022-08-19T07:16:08;19.90;99.90
57833;DHT22;43667;53.036;6.740;2022-08-19T07:18:35;20.00;99.90
57833;DHT22;43667;53.036;6.740;2022-08-19T07:21:10;20.20;99.90
57833;DHT22;43667;53.036;6.740;2022-08-19T07:23:36;20.40;99.90
57833;DHT22;43667;53.036;6.740;2022-08-19T07:26:12;20.60;99.90
57833;DHT22;43667;53.036;6.740;2022-08-19T07:28:38;20.70;99.90
57833;DHT22;43667;53.036;6.740;2022-08-19T07:31:07;20.90;99.90
57833;DHT22;43667;53.036;6.740;2022-08-19T07:33:34;21.00;99.90
57833;DHT22;43667;53.036;6.740;2022-08-19T07:36:04;21.20;99.90
57833;DHT22;43667;53.036;6.740;2022-08-19T07:38:30;21.30;99.90
57833;DHT22;43667;53.036;6.740;2022-08-19T07:40:56;21.50;99.90
57833;DHT22;43667;53.036;6.740;2022-08-19T07:43:21;21.60;99.90
57833;DHT22;43667;53.036;6.740;2022-08-19T07:45:51;21.70;99.90
57833;DHT22;43667;53.036;6.740;2022-08-19T07:48:19;21.90;99.90
57833;DHT22;43667;53.036;6.740;2022-08-19T07:50:45;22.00;99.90
57833;DHT22;43667;53.036;6.740;2022-08-19T07:53:10;22.10;99.90
57833;DHT22;43667;53.036;6.740;2022-08-19T07:55:37;22.20;99.90
57833;DHT22;43667;53.036;6.740;2022-08-19T07:58:03;22.30;99.90
57833;DHT22;43667;53.036;6.740;2022-08-19T08:00:30;22.50;99.90
57833;DHT22;43667;53.036;6.740;2022-08-19T08:02:55;22.60;99.90
57833;DHT22;43667;53.036;6.740;2022-08-19T08:05:22;22.70;99.90
57833;DHT22;43667;53.036;6.740;2022-08-19T08:08:06;22.90;99.90
57833;DHT22;43667;53.036;6.740;2022-08-19T08:10:51;23.10;99.90
57833;DHT22;43667;53.036;6.740;2022-08-19T08:13:16;23.30;99.90
57833;DHT22;43667;53.036;6.740;2022-08-19T08:15:42;23.50;99.90
57833;DHT22;43667;53.036;6.740;2022-08-19T08:18:11;23.70;99.90
57833;DHT22;43667;53.036;6.740;2022-08-19T08:20:37;23.70;99.90
57833;DHT22;43667;53.036;6.740;2022-08-19T08:23:02;23.80;99.90
57833;DHT22;43667;53.036;6.740;2022-08-19T08:25:47;24.00;99.90
57833;DHT22;43667;53.036;6.740;2022-08-19T08:28:14;24.20;99.90
57833;DHT22;43667;53.036;6.740;2022-08-19T08:30:40;24.30;99.90
57833;DHT22;43667;53.036;6.740;2022-08-19T08:33:09;24.50;99.90
57833;DHT22;43667;53.036;6.740;2022-08-19T08:35:35;24.70;99.90
57833;DHT22;43667;53.036;6.740;2022-08-19T08:38:01;24.90;99.90
57833;DHT22;43667;53.036;6.740;2022-08-19T08:40:31;25.10;99.90
57833;DHT22;43667;53.036;6.740;2022-08-19T08:43:06;25.20;99.90
57833;DHT22;43667;53.036;6.740;2022-08-19T08:45:35;25.30;99.80
57833;DHT22;43667;53.036;6.740;2022-08-19T08:48:15;25.30;98.80
57833;DHT22;43667;53.036;6.740;2022-08-19T08:50:45;25.40;98.10
57833;DHT22;43667;53.036;6.740;2022-08-19T08:53:14;25.60;97.70
57833;DHT22;43667;53.036;6.740;2022-08-19T08:55:41;25.60;96.70
57833;DHT22;43667;53.036;6.740;2022-08-19T08:58:13;25.70;96.30
57833;DHT22;43667;53.036;6.740;2022-08-19T09:00:48;25.80;96.10
57833;DHT22;43667;53.036;6.740;2022-08-19T09:03:24;26.00;94.80
57833;DHT22;43667;53.036;6.740;2022-08-19T09:05:59;26.10;94.60
57833;DHT22;43667;53.036;6.740;2022-08-19T09:08:54;26.10;94.30
57833;DHT22;43667;53.036;6.740;2022-08-19T09:11:43;26.20;94.10
57833;DHT22;43667;53.036;6.740;2022-08-19T09:17:29;26.50;92.00
57833;DHT22;43667;53.036;6.740;2022-08-19T09:20:04;26.60;92.30
57833;DHT22;43667;53.036;6.740;2022-08-19T09:22:37;26.80;92.50
57833;DHT22;43667;53.036;6.740;2022-08-19T09:25:04;26.90;91.70
57833;DHT22;43667;53.036;6.740;2022-08-19T09:27:31;27.00;91.30
57833;DHT22;43667;53.036;6.740;2022-08-19T09:29:58;27.20;89.90
57833;DHT22;43667;53.036;6.740;2022-08-19T09:32:23;27.30;85.60
57833;DHT22;43667;53.036;6.740;2022-08-19T09:34:50;27.40;84.10
57833;DHT22;43667;53.036;6.740;2022-08-19T09:37:18;27.50;87.00
57833;DHT22;43667;53.036;6.740;2022-08-19T09:39:43;27.70;80.20
57833;DHT22;43667;53.036;6.740;2022-08-19T09:42:09;27.60;77.40
57833;DHT22;43667;53.036;6.740;2022-08-19T09:44:41;27.60;77.40
57833;DHT22;43667;53.036;6.740;2022-08-19T09:47:08;27.70;79.70
57833;DHT22;43667;53.036;6.740;2022-08-19T09:49:34;27.90;76.90
57833;DHT22;43667;53.036;6.740;2022-08-19T09:52:00;28.00;74.30
57833;DHT22;43667;53.036;6.740;2022-08-19T09:54:26;28.00;74.90
57833;DHT22;43667;53.036;6.740;2022-08-19T09:56:55;28.10;74.00
57833;DHT22;43667;53.036;6.740;2022-08-19T09:59:23;28.20;72.30
57833;DHT22;43667;53.036;6.740;2022-08-19T10:01:49;28.40;72.10
57833;DHT22;43667;53.036;6.740;2022-08-19T10:04:16;28.60;70.00
57833;DHT22;43667;53.036;6.740;2022-08-19T10:06:42;28.80;70.90
57833;DHT22;43667;53.036;6.740;2022-08-19T10:09:09;29.00;70.60
57833;DHT22;43667;53.036;6.740;2022-08-19T10:11:39;29.10;67.90
57833;DHT22;43667;53.036;6.740;2022-08-19T10:14:05;29.30;66.00
57833;DHT22;43667;53.036;6.740;2022-08-19T10:16:32;29.30;64.20
57833;DHT22;43667;53.036;6.740;2022-08-19T10:18:58;29.30;62.90
57833;DHT22;43667;53.036;6.740;2022-08-19T10:21:27;29.40;63.20
57833;DHT22;43667;53.036;6.740;2022-08-19T10:23:56;29.40;62.00
57833;DHT22;43667;53.036;6.740;2022-08-19T10:26:25;29.50;62.20
57833;DHT22;43667;53.036;6.740;2022-08-19T10:28:51;29.50;60.50
57833;DHT22;43667;53.036;6.740;2022-08-19T10:31:20;29.50;60.00
57833;DHT22;43667;53.036;6.740;2022-08-19T10:33:47;29.40;60.40
57833;DHT22;43667;53.036;6.740;2022-08-19T10:36:16;29.50;62.40
57833;DHT22;43667;53.036;6.740;2022-08-19T10:38:43;29.60;60.50
57833;DHT22;43667;53.036;6.740;2022-08-19T10:41:16;29.70;61.00
57833;DHT22;43667;53.036;6.740;2022-08-19T10:43:43;29.80;60.90
57833;DHT22;43667;53.036;6.740;2022-08-19T10:46:12;29.90;59.80
57833;DHT22;43667;53.036;6.740;2022-08-19T10:48:38;29.90;58.90
57833;DHT22;43667;53.036;6.740;2022-08-19T10:51:04;29.60;58.40
57833;DHT22;43667;53.036;6.740;2022-08-19T10:53:49;29.40;58.40
57833;DHT22;43667;53.036;6.740;2022-08-19T10:56:15;29.00;60.20
57833;DHT22;43667;53.036;6.740;2022-08-19T10:59:00;28.80;61.30
57833;DHT22;43667;53.036;6.740;2022-08-19T11:01:29;28.70;63.10
57833;DHT22;43667;53.036;6.740;2022-08-19T11:03:56;28.70;63.60
57833;DHT22;43667;53.036;6.740;2022-08-19T11:06:23;28.80;62.80
57833;DHT22;43667;53.036;6.740;2022-08-19T11:08:51;28.90;61.80
57833;DHT22;43667;53.036;6.740;2022-08-19T11:11:16;28.90;61.20
57833;DHT22;43667;53.036;6.740;2022-08-19T11:13:43;29.00;61.10
57833;DHT22;43667;53.036;6.740;2022-08-19T11:16:19;29.00;60.80
57833;DHT22;43667;53.036;6.740;2022-08-19T11:18:53;28.90;61.10
57833;DHT22;43667;53.036;6.740;2022-08-19T11:21:23;28.70;60.20
57833;DHT22;43667;53.036;6.740;2022-08-19T11:23:51;28.50;61.30
57833;DHT22;43667;53.036;6.740;2022-08-19T11:26:18;28.30;62.00
57833;DHT22;43667;53.036;6.740;2022-08-19T11:28:44;28.20;61.60
57833;DHT22;43667;53.036;6.740;2022-08-19T11:31:14;28.00;62.40
57833;DHT22;43667;53.036;6.740;2022-08-19T11:33:41;27.90;63.70
57833;DHT22;43667;53.036;6.740;2022-08-19T11:36:06;27.90;65.30
57833;DHT22;43667;53.036;6.740;2022-08-19T11:38:33;27.90;63.60
57833;DHT22;43667;53.036;6.740;2022-08-19T11:41:01;28.20;63.80
57833;DHT22;43667;53.036;6.740;2022-08-19T11:43:27;28.60;61.10
57833;DHT22;43667;53.036;6.740;2022-08-19T11:45:54;28.80;60.30
57833;DHT22;43667;53.036;6.740;2022-08-19T11:48:20;29.10;60.00
57833;DHT22;43667;53.036;6.740;2022-08-19T11:50:48;29.30;59.90
57833;DHT22;43667;53.036;6.740;2022-08-19T11:53:13;29.50;59.60
57833;DHT22;43667;53.036;6.740;2022-08-19T11:55:39;29.70;59.70
57833;DHT22;43667;53.036;6.740;2022-08-19T11:58:05;29.50;59.00
57833;DHT22;43667;53.036;6.740;2022-08-19T12:00:34;29.50;59.50
57833;DHT22;43667;53.036;6.740;2022-08-19T12:03:01;29.30;60.80
57833;DHT22;43667;53.036;6.740;2022-08-19T12:05:26;29.10;61.90
57833;DHT22;43667;53.036;6.740;2022-08-19T12:07:52;28.80;61.20
57833;DHT22;43667;53.036;6.740;2022-08-19T12:10:19;28.50;62.60
57833;DHT22;43667;53.036;6.740;2022-08-19T12:12:45;28.30;62.70
57833;DHT22;43667;53.036;6.740;2022-08-19T12:15:12;28.20;64.20
57833;DHT22;43667;53.036;6.740;2022-08-19T12:17:38;28.10;65.20
57833;DHT22;43667;53.036;6.740;2022-08-19T12:20:04;28.10;66.00
57833;DHT22;43667;53.036;6.740;2022-08-19T12:22:31;28.20;65.80
57833;DHT22;43667;53.036;6.740;2022-08-19T12:24:56;28.40;64.80
57833;DHT22;43667;53.036;6.740;2022-08-19T12:27:23;28.60;62.50
57833;DHT22;43667;53.036;6.740;2022-08-19T12:29:49;28.50;61.80
57833;DHT22;43667;53.036;6.740;2022-08-19T12:32:15;28.40;61.60
57833;DHT22;43667;53.036;6.740;2022-08-19T12:34:42;28.40;62.60
57833;DHT22;43667;53.036;6.740;2022-08-19T12:37:08;28.60;61.80
57833;DHT22;43667;53.036;6.740;2022-08-19T12:39:35;28.80;61.80
57833;DHT22;43667;53.036;6.740;2022-08-19T12:42:01;28.80;61.00
57833;DHT22;43667;53.036;6.740;2022-08-19T12:44:27;28.90;60.30
57833;DHT22;43667;53.036;6.740;2022-08-19T12:46:54;29.00;60.10
57833;DHT22;43667;53.036;6.740;2022-08-19T12:49:19;29.00;60.00
57833;DHT22;43667;53.036;6.740;2022-08-19T12:51:45;29.10;58.70
57833;DHT22;43667;53.036;6.740;2022-08-19T12:54:11;29.00;57.60
57833;DHT22;43667;53.036;6.740;2022-08-19T12:56:37;28.80;58.70
57833;DHT22;43667;53.036;6.740;2022-08-19T12:59:03;28.70;59.60
57833;DHT22;43667;53.036;6.740;2022-08-19T13:01:29;28.60;59.00
57833;DHT22;43667;53.036;6.740;2022-08-19T13:03:58;28.60;61.00
57833;DHT22;43667;53.036;6.740;2022-08-19T13:06:24;28.60;57.70
57833;DHT22;43667;53.036;6.740;2022-08-19T13:08:49;28.60;57.90
57833;DHT22;43667;53.036;6.740;2022-08-19T13:11:17;28.60;57.30
57833;DHT22;43667;53.036;6.740;2022-08-19T13:13:45;28.60;56.70
57833;DHT22;43667;53.036;6.740;2022-08-19T13:16:12;28.70;55.80
57833;DHT22;43667;53.036;6.740;2022-08-19T13:18:39;28.80;56.30
57833;DHT22;43667;53.036;6.740;2022-08-19T13:21:06;28.90;55.40
57833;DHT22;43667;53.036;6.740;2022-08-19T13:23:33;29.00;55.90
57833;DHT22;43667;53.036;6.740;2022-08-19T13:26:01;28.90;55.30
57833;DHT22;43667;53.036;6.740;2022-08-19T13:28:28;28.90;55.90
57833;DHT22;43667;53.036;6.740;2022-08-19T13:31:21;28.90;56.10
57833;DHT22;43667;53.036;6.740;2022-08-19T13:34:06;28.90;57.30
57833;DHT22;43667;53.036;6.740;2022-08-19T13:36:36;28.90;55.60
57833;DHT22;43667;53.036;6.740;2022-08-19T13:39:04;29.00;55.20
57833;DHT22;43667;53.036;6.740;2022-08-19T13:41:30;29.00;55.50
57833;DHT22;43667;53.036;6.740;2022-08-19T13:43:56;29.00;54.20
57833;DHT22;43667;53.036;6.740;2022-08-19T13:46:22;29.10;54.40
57833;DHT22;43667;53.036;6.740;2022-08-19T13:48:48;29.10;54.00
57833;DHT22;43667;53.036;6.740;2022-08-19T13:51:16;28.90;53.80
57833;DHT22;43667;53.036;6.740;2022-08-19T13:53:42;28.80;54.60
57833;DHT22;43667;53.036;6.740;2022-08-19T13:56:10;28.50;57.10
57833;DHT22;43667;53.036;6.740;2022-08-19T13:58:37;28.30;56.90
57833;DHT22;43667;53.036;6.740;2022-08-19T14:01:04;28.20;59.30
57833;DHT22;43667;53.036;6.740;2022-08-19T14:03:31;28.00;60.80
57833;DHT22;43667;53.036;6.740;2022-08-19T14:05:56;27.80;63.10
57833;DHT22;43667;53.036;6.740;2022-08-19T14:08:22;27.70;65.80
57833;DHT22;43667;53.036;6.740;2022-08-19T14:10:48;27.50;69.00
57833;DHT22;43667;53.036;6.740;2022-08-19T14:13:17;27.40;72.70
57833;DHT22;43667;53.036;6.740;2022-08-19T14:15:43;27.30;74.90
57833;DHT22;43667;53.036;6.740;2022-08-19T14:18:09;27.20;78.70
57833;DHT22;43667;53.036;6.740;2022-08-19T14:20:36;27.10;82.60
57833;DHT22;43667;53.036;6.740;2022-08-19T14:23:02;27.00;86.00
57833;DHT22;43667;53.036;6.740;2022-08-19T14:25:31;27.00;88.20
57833;DHT22;43667;53.036;6.740;2022-08-19T14:27:57;26.80;90.30
57833;DHT22;43667;53.036;6.740;2022-08-19T14:30:30;26.70;92.10
57833;DHT22;43667;53.036;6.740;2022-08-19T14:32:57;26.60;91.80
57833;DHT22;43667;53.036;6.740;2022-08-19T14:35:24;26.50;93.00
57833;DHT22;43667;53.036;6.740;2022-08-19T14:37:50;26.50;92.90
57833;DHT22;43667;53.036;6.740;2022-08-19T14:40:19;26.50;92.10
57833;DHT22;43667;53.036;6.740;2022-08-19T14:42:46;26.40;91.20
57833;DHT22;43667;53.036;6.740;2022-08-19T14:45:13;26.40;90.40
57833;DHT22;43667;53.036;6.740;2022-08-19T14:47:39;26.40;90.90
57833;DHT22;43667;53.036;6.740;2022-08-19T14:50:10;26.40;91.20
57833;DHT22;43667;53.036;6.740;2022-08-19T14:52:37;26.50;90.30
57833;DHT22;43667;53.036;6.740;2022-08-19T14:55:04;26.50;91.00
57833;DHT22;43667;53.036;6.740;2022-08-19T14:57:30;26.40;90.10
57833;DHT22;43667;53.036;6.740;2022-08-19T14:59:56;26.30;90.00
57833;DHT22;43667;53.036;6.740;2022-08-19T15:02:23;26.20;89.30
57833;DHT22;43667;53.036;6.740;2022-08-19T15:04:48;26.10;89.00
57833;DHT22;43667;53.036;6.740;2022-08-19T15:07:16;26.10;90.60
57833;DHT22;43667;53.036;6.740;2022-08-19T15:09:41;26.00;91.00
57833;DHT22;43667;53.036;6.740;2022-08-19T15:12:07;26.00;91.90
57833;DHT22;43667;53.036;6.740;2022-08-19T15:14:36;25.90;92.00
57833;DHT22;43667;53.036;6.740;2022-08-19T15:17:04;25.90;93.10
57833;DHT22;43667;53.036;6.740;2022-08-19T15:19:31;25.90;93.00
57833;DHT22;43667;53.036;6.740;2022-08-19T15:21:57;25.90;93.50
57833;DHT22;43667;53.036;6.740;2022-08-19T15:24:22;25.80;94.20
57833;DHT22;43667;53.036;6.740;2022-08-19T15:26:51;25.80;95.00
57833;DHT22;43667;53.036;6.740;2022-08-19T15:29:17;25.80;95.50
57833;DHT22;43667;53.036;6.740;2022-08-19T15:31:43;25.80;94.70
57833;DHT22;43667;53.036;6.740;2022-08-19T15:34:09;25.80;94.70
57833;DHT22;43667;53.036;6.740;2022-08-19T15:36:36;25.80;95.00
57833;DHT22;43667;53.036;6.740;2022-08-19T15:39:03;25.90;95.10
57833;DHT22;43667;53.036;6.740;2022-08-19T15:41:30;26.00;94.70